Keyesport, Illinois
Current Conditions -  °F | °C
As of 2:55 PM on Sunday 23 Nov 2014 (Local Time) from KENL Reporting Station
Light Rain Light Rain  
Wind Chill: 51°   Ceiling: 800
Heat Index: 51°   Visibility: 5mi
Dew Point: 49°   Wind: 6mph
Humidity: 91%   Direction: 110°ESE
Pressure: 29.4"   Gusts: NA
Location:  38.74°N, 89.28°W
Report Text: KENL 232055Z AUTO 11005KT 5SM -RA BKN008 BKN020 OVC041 11/09 A2940 RMK AO2 P0004 60008 T01080094
Loading
Personal Weather Stations






























Interactive Weather Map New forecast layout! Learn more

10-Day Weather Forecast

Advertisements
Track Severe Weather on mobile